Aérodrome :
LOGIN :

S'inscrire | Disclaimer

   EN    FR    IT 

 










Légende :    VFR   VFR Marginal   IFR   IFR Intensif   IFR Très Intensif
Visi : 
Plafond : 
>= 8 km
>= 3000ft
5 à 8 km
1000 à 3000 ft
1500m à 5 km
500 à 1000 ft
800 à 1500m
200 à 500 ft
< 800m
< 200 ft
Symboles :   Orages  Brouillard  Fortes neiges  Fortes précipitations  Vent > 20 kt
SIGMETs :   Divers  Orages  Givrage  Turbulence  Onde Orograph.  Cendres Volcan.







- Altitude de l'aérodrome : 433 ft
- Code IATA : CCF
- Voir les cartes d'approche


LFMK - Carcassonne

DERNIER METAR :
  • 231530Z AUTO VRB02KT CAVOK 18/09 Q1013 NOSIG

METARs EXPIRÉS :
  • 231500Z AUTO 35001KT CAVOK 18/08 Q1013 BECMG 26010KT
  • 231430Z AUTO VRB02KT CAVOK 18/09 Q1013 NOSIG
  • 231400Z AUTO VRB03KT CAVOK 18/09 Q1013 NOSIG
  • 231330Z AUTO 10004KT 030V180 CAVOK 18/09 Q1014 BECMG 28010KT
  • 231300Z AUTO 08006KT 050V120 CAVOK 17/09 Q1014 BECMG 28010KT

TAF TAF LFMK
Valide du 23 à 15h jusqu'au 24 à 15h UTC


231400Z 2315/2415 26010KT CAVOK
BECMG 2319/2321 BKN013 BKN030
TEMPO 2406/2409 4000 RA BR OVC008
BECMG 2410/2413 29015G28KT BKN033
Pas de NOTAMs connus pour ce terrain.



MET'MAP, la Météo Aéronautique d'un coup d'oeil ! - Copyright ORBIFLY Décembre 2007 - Disclaimer

ORBIFLY MET'MAP TEAM :

Programmation & Développement : Alexandra Zaïnal
Conception & Développement : Baudouin d'Aumeries
Co-Programmation & Développement : Marc-Olivier Méhu
Soutien technique & logistique : Manuel Goepfert

Contact : metmap@orbifly.com




SOURCES & CREDITS :

   NOAA